sensor_id;sensor_type;location;lat;lon;timestamp;P1;durP1;ratioP1;P2;durP2;ratioP2
5987;SDS011;3021;51.000;6.980;2022-07-29T00:01:48;1.77;;;0.95;;
5987;SDS011;3021;51.000;6.980;2022-07-29T00:04:14;2.88;;;0.82;;
5987;SDS011;3021;51.000;6.980;2022-07-29T00:06:40;2.03;;;0.77;;
5987;SDS011;3021;51.000;6.980;2022-07-29T00:09:06;1.48;;;0.70;;
5987;SDS011;3021;51.000;6.980;2022-07-29T00:11:31;1.10;;;0.80;;
5987;SDS011;3021;51.000;6.980;2022-07-29T00:13:57;2.30;;;1.10;;
5987;SDS011;3021;51.000;6.980;2022-07-29T00:16:22;2.10;;;0.88;;
5987;SDS011;3021;51.000;6.980;2022-07-29T00:18:48;2.17;;;1.00;;
5987;SDS011;3021;51.000;6.980;2022-07-29T00:21:13;2.67;;;0.80;;
5987;SDS011;3021;51.000;6.980;2022-07-29T00:23:38;1.48;;;0.60;;
5987;SDS011;3021;51.000;6.980;2022-07-29T00:26:04;2.33;;;0.70;;
5987;SDS011;3021;51.000;6.980;2022-07-29T00:28:29;1.52;;;0.80;;
5987;SDS011;3021;51.000;6.980;2022-07-29T00:30:54;1.83;;;0.98;;
5987;SDS011;3021;51.000;6.980;2022-07-29T00:33:20;3.00;;;1.05;;
5987;SDS011;3021;51.000;6.980;2022-07-29T00:35:46;2.42;;;0.80;;
5987;SDS011;3021;51.000;6.980;2022-07-29T00:38:13;1.65;;;0.85;;
5987;SDS011;3021;51.000;6.980;2022-07-29T00:40:40;5.28;;;1.00;;
5987;SDS011;3021;51.000;6.980;2022-07-29T00:43:06;1.92;;;0.90;;
5987;SDS011;3021;51.000;6.980;2022-07-29T00:45:32;3.08;;;1.13;;
5987;SDS011;3021;51.000;6.980;2022-07-29T00:47:57;1.83;;;0.80;;
5987;SDS011;3021;51.000;6.980;2022-07-29T00:50:23;1.27;;;0.68;;
5987;SDS011;3021;51.000;6.980;2022-07-29T00:52:49;1.95;;;1.00;;
5987;SDS011;3021;51.000;6.980;2022-07-29T00:55:17;1.27;;;0.85;;
5987;SDS011;3021;51.000;6.980;2022-07-29T00:57:42;1.58;;;1.00;;
5987;SDS011;3021;51.000;6.980;2022-07-29T01:00:09;2.45;;;0.60;;
5987;SDS011;3021;51.000;6.980;2022-07-29T01:02:37;2.75;;;0.90;;
5987;SDS011;3021;51.000;6.980;2022-07-29T01:05:03;2.90;;;0.80;;
5987;SDS011;3021;51.000;6.980;2022-07-29T01:07:30;2.20;;;0.70;;
5987;SDS011;3021;51.000;6.980;2022-07-29T01:09:58;3.47;;;0.90;;
5987;SDS011;3021;51.000;6.980;2022-07-29T01:12:26;2.70;;;0.93;;
5987;SDS011;3021;51.000;6.980;2022-07-29T01:14:53;0.70;;;0.60;;
5987;SDS011;3021;51.000;6.980;2022-07-29T01:31:07;2.38;;;0.80;;
5987;SDS011;3021;51.000;6.980;2022-07-29T01:33:40;1.65;;;0.90;;
5987;SDS011;3021;51.000;6.980;2022-07-29T01:36:18;0.95;;;0.60;;
5987;SDS011;3021;51.000;6.980;2022-07-29T01:39:09;2.55;;;1.20;;
5987;SDS011;3021;51.000;6.980;2022-07-29T01:41:38;2.75;;;1.00;;
5987;SDS011;3021;51.000;6.980;2022-07-29T01:44:11;1.45;;;0.90;;
5987;SDS011;3021;51.000;6.980;2022-07-29T01:46:44;3.05;;;1.10;;
5987;SDS011;3021;51.000;6.980;2022-07-29T01:49:18;1.98;;;1.08;;
5987;SDS011;3021;51.000;6.980;2022-07-29T01:52:08;1.45;;;0.70;;
5987;SDS011;3021;51.000;6.980;2022-07-29T01:54:39;0.75;;;0.70;;
5987;SDS011;3021;51.000;6.980;2022-07-29T01:57:11;1.10;;;0.80;;
5987;SDS011;3021;51.000;6.980;2022-07-29T01:59:39;1.95;;;0.60;;
5987;SDS011;3021;51.000;6.980;2022-07-29T02:02:06;1.63;;;0.70;;
5987;SDS011;3021;51.000;6.980;2022-07-29T02:04:35;0.77;;;0.55;;
5987;SDS011;3021;51.000;6.980;2022-07-29T02:07:07;0.77;;;0.70;;
5987;SDS011;3021;51.000;6.980;2022-07-29T02:09:38;1.52;;;0.90;;
5987;SDS011;3021;51.000;6.980;2022-07-29T02:12:06;2.80;;;1.20;;
5987;SDS011;3021;51.000;6.980;2022-07-29T02:14:34;2.33;;;0.93;;
5987;SDS011;3021;51.000;6.980;2022-07-29T02:17:03;4.10;;;0.90;;
5987;SDS011;3021;51.000;6.980;2022-07-29T02:19:29;1.88;;;0.77;;
5987;SDS011;3021;51.000;6.980;2022-07-29T02:21:58;0.82;;;0.68;;
5987;SDS011;3021;51.000;6.980;2022-07-29T02:24:25;2.60;;;0.70;;
5987;SDS011;3021;51.000;6.980;2022-07-29T02:26:52;0.95;;;0.73;;
5987;SDS011;3021;51.000;6.980;2022-07-29T02:29:24;2.67;;;1.17;;
5987;SDS011;3021;51.000;6.980;2022-07-29T02:31:53;2.92;;;1.10;;
5987;SDS011;3021;51.000;6.980;2022-07-29T02:34:20;2.30;;;0.80;;
5987;SDS011;3021;51.000;6.980;2022-07-29T02:36:46;1.50;;;0.85;;
5987;SDS011;3021;51.000;6.980;2022-07-29T02:39:13;1.77;;;0.88;;
5987;SDS011;3021;51.000;6.980;2022-07-29T02:41:55;2.13;;;0.82;;
5987;SDS011;3021;51.000;6.980;2022-07-29T02:44:27;1.88;;;0.77;;
5987;SDS011;3021;51.000;6.980;2022-07-29T02:47:00;2.90;;;1.00;;
5987;SDS011;3021;51.000;6.980;2022-07-29T02:49:38;2.38;;;0.80;;
5987;SDS011;3021;51.000;6.980;2022-07-29T02:55:07;0.70;;;0.70;;
5987;SDS011;3021;51.000;6.980;2022-07-29T02:57:44;1.50;;;1.02;;
5987;SDS011;3021;51.000;6.980;2022-07-29T03:00:13;0.93;;;0.82;;
5987;SDS011;3021;51.000;6.980;2022-07-29T03:02:41;2.40;;;0.80;;
5987;SDS011;3021;51.000;6.980;2022-07-29T03:05:11;2.45;;;0.80;;
5987;SDS011;3021;51.000;6.980;2022-07-29T03:07:43;1.42;;;0.98;;
5987;SDS011;3021;51.000;6.980;2022-07-29T03:10:11;2.70;;;1.00;;
5987;SDS011;3021;51.000;6.980;2022-07-29T03:12:37;2.65;;;0.90;;
5987;SDS011;3021;51.000;6.980;2022-07-29T03:15:03;2.38;;;1.02;;
5987;SDS011;3021;51.000;6.980;2022-07-29T03:17:29;3.05;;;1.00;;
5987;SDS011;3021;51.000;6.980;2022-07-29T03:19:56;2.45;;;1.20;;
5987;SDS011;3021;51.000;6.980;2022-07-29T03:22:23;1.85;;;1.10;;
5987;SDS011;3021;51.000;6.980;2022-07-29T03:24:49;2.05;;;1.00;;
5987;SDS011;3021;51.000;6.980;2022-07-29T03:27:15;1.63;;;1.05;;
5987;SDS011;3021;51.000;6.980;2022-07-29T03:29:40;3.92;;;1.13;;
5987;SDS011;3021;51.000;6.980;2022-07-29T03:32:08;2.00;;;1.17;;
5987;SDS011;3021;51.000;6.980;2022-07-29T03:34:34;2.70;;;0.90;;
5987;SDS011;3021;51.000;6.980;2022-07-29T03:37:01;2.40;;;1.23;;
5987;SDS011;3021;51.000;6.980;2022-07-29T03:39:27;5.13;;;1.25;;
5987;SDS011;3021;51.000;6.980;2022-07-29T03:41:56;4.50;;;1.10;;
5987;SDS011;3021;51.000;6.980;2022-07-29T03:44:24;5.13;;;1.50;;
5987;SDS011;3021;51.000;6.980;2022-07-29T03:46:52;3.35;;;1.20;;
5987;SDS011;3021;51.000;6.980;2022-07-29T03:49:20;4.15;;;1.00;;
5987;SDS011;3021;51.000;6.980;2022-07-29T03:51:48;2.05;;;1.27;;
5987;SDS011;3021;51.000;6.980;2022-07-29T03:54:13;2.63;;;0.93;;
5987;SDS011;3021;51.000;6.980;2022-07-29T03:56:39;2.45;;;1.17;;
5987;SDS011;3021;51.000;6.980;2022-07-29T03:59:07;4.05;;;1.30;;
5987;SDS011;3021;51.000;6.980;2022-07-29T04:01:33;2.25;;;1.08;;
5987;SDS011;3021;51.000;6.980;2022-07-29T04:04:00;1.63;;;1.10;;
5987;SDS011;3021;51.000;6.980;2022-07-29T04:06:26;2.63;;;1.20;;
5987;SDS011;3021;51.000;6.980;2022-07-29T04:08:51;1.45;;;1.02;;
5987;SDS011;3021;51.000;6.980;2022-07-29T04:11:17;9.30;;;1.42;;
5987;SDS011;3021;51.000;6.980;2022-07-29T04:13:42;5.32;;;1.27;;
5987;SDS011;3021;51.000;6.980;2022-07-29T04:16:08;3.70;;;1.20;;
5987;SDS011;3021;51.000;6.980;2022-07-29T04:18:34;5.32;;;1.20;;
5987;SDS011;3021;51.000;6.980;2022-07-29T04:20:59;1.42;;;1.00;;
5987;SDS011;3021;51.000;6.980;2022-07-29T04:23:26;2.53;;;1.50;;
5987;SDS011;3021;51.000;6.980;2022-07-29T04:25:52;3.25;;;1.55;;
5987;SDS011;3021;51.000;6.980;2022-07-29T04:28:17;1.75;;;1.02;;
5987;SDS011;3021;51.000;6.980;2022-07-29T04:30:43;5.63;;;1.30;;
5987;SDS011;3021;51.000;6.980;2022-07-29T04:33:08;2.47;;;0.90;;
5987;SDS011;3021;51.000;6.980;2022-07-29T04:35:35;1.98;;;1.13;;
5987;SDS011;3021;51.000;6.980;2022-07-29T04:38:02;3.53;;;1.10;;
5987;SDS011;3021;51.000;6.980;2022-07-29T04:40:28;4.55;;;1.20;;
5987;SDS011;3021;51.000;6.980;2022-07-29T04:42:54;2.53;;;1.67;;
5987;SDS011;3021;51.000;6.980;2022-07-29T04:45:19;2.67;;;1.33;;
5987;SDS011;3021;51.000;6.980;2022-07-29T04:47:45;6.35;;;2.13;;
5987;SDS011;3021;51.000;6.980;2022-07-29T04:50:11;5.22;;;1.63;;
5987;SDS011;3021;51.000;6.980;2022-07-29T04:52:36;5.65;;;2.08;;
5987;SDS011;3021;51.000;6.980;2022-07-29T04:55:02;4.32;;;2.45;;
5987;SDS011;3021;51.000;6.980;2022-07-29T04:57:29;4.20;;;2.00;;
5987;SDS011;3021;51.000;6.980;2022-07-29T04:59:54;3.33;;;1.40;;
5987;SDS011;3021;51.000;6.980;2022-07-29T05:02:20;3.83;;;1.85;;
5987;SDS011;3021;51.000;6.980;2022-07-29T05:04:46;5.95;;;2.42;;
5987;SDS011;3021;51.000;6.980;2022-07-29T05:07:12;4.30;;;2.05;;
5987;SDS011;3021;51.000;6.980;2022-07-29T05:09:37;6.68;;;2.08;;
5987;SDS011;3021;51.000;6.980;2022-07-29T05:12:03;6.53;;;2.30;;
5987;SDS011;3021;51.000;6.980;2022-07-29T05:14:28;3.00;;;1.60;;
5987;SDS011;3021;51.000;6.980;2022-07-29T05:16:56;4.80;;;2.10;;
5987;SDS011;3021;51.000;6.980;2022-07-29T05:19:22;2.72;;;1.70;;
5987;SDS011;3021;51.000;6.980;2022-07-29T05:21:48;3.22;;;2.00;;
5987;SDS011;3021;51.000;6.980;2022-07-29T05:24:13;5.25;;;2.35;;
5987;SDS011;3021;51.000;6.980;2022-07-29T05:26:39;4.55;;;2.13;;
5987;SDS011;3021;51.000;6.980;2022-07-29T05:29:04;3.65;;;2.00;;
5987;SDS011;3021;51.000;6.980;2022-07-29T05:31:30;5.03;;;2.38;;
5987;SDS011;3021;51.000;6.980;2022-07-29T05:33:55;5.65;;;2.08;;
5987;SDS011;3021;51.000;6.980;2022-07-29T05:36:21;4.57;;;1.80;;
5987;SDS011;3021;51.000;6.980;2022-07-29T05:38:46;3.28;;;1.85;;
5987;SDS011;3021;51.000;6.980;2022-07-29T05:41:11;4.45;;;1.70;;
5987;SDS011;3021;51.000;6.980;2022-07-29T05:43:37;4.88;;;1.95;;
5987;SDS011;3021;51.000;6.980;2022-07-29T05:46:02;5.05;;;1.90;;
5987;SDS011;3021;51.000;6.980;2022-07-29T05:48:28;4.47;;;1.50;;
5987;SDS011;3021;51.000;6.980;2022-07-29T05:50:53;7.40;;;2.00;;
5987;SDS011;3021;51.000;6.980;2022-07-29T05:53:19;5.18;;;2.05;;
5987;SDS011;3021;51.000;6.980;2022-07-29T05:55:45;4.25;;;2.20;;
5987;SDS011;3021;51.000;6.980;2022-07-29T05:58:10;3.00;;;1.80;;
5987;SDS011;3021;51.000;6.980;2022-07-29T06:00:35;6.03;;;1.88;;
5987;SDS011;3021;51.000;6.980;2022-07-29T06:03:01;3.97;;;1.50;;
5987;SDS011;3021;51.000;6.980;2022-07-29T06:05:26;4.60;;;1.70;;
5987;SDS011;3021;51.000;6.980;2022-07-29T06:07:52;2.60;;;1.40;;
5987;SDS011;3021;51.000;6.980;2022-07-29T06:10:18;2.80;;;1.40;;
5987;SDS011;3021;51.000;6.980;2022-07-29T06:12:44;4.40;;;1.48;;
5987;SDS011;3021;51.000;6.980;2022-07-29T06:15:09;1.77;;;1.00;;
5987;SDS011;3021;51.000;6.980;2022-07-29T06:17:34;3.17;;;1.30;;
5987;SDS011;3021;51.000;6.980;2022-07-29T06:20:00;2.72;;;1.23;;
5987;SDS011;3021;51.000;6.980;2022-07-29T06:22:26;2.03;;;0.95;;
5987;SDS011;3021;51.000;6.980;2022-07-29T06:24:51;2.60;;;1.20;;
5987;SDS011;3021;51.000;6.980;2022-07-29T06:27:17;2.90;;;1.10;;
5987;SDS011;3021;51.000;6.980;2022-07-29T06:29:42;3.17;;;1.30;;
5987;SDS011;3021;51.000;6.980;2022-07-29T06:32:07;2.47;;;1.00;;
5987;SDS011;3021;51.000;6.980;2022-07-29T06:34:34;5.00;;;1.20;;
5987;SDS011;3021;51.000;6.980;2022-07-29T06:37:00;3.08;;;1.30;;
5987;SDS011;3021;51.000;6.980;2022-07-29T06:39:27;2.88;;;1.25;;
5987;SDS011;3021;51.000;6.980;2022-07-29T06:41:53;5.55;;;1.50;;
5987;SDS011;3021;51.000;6.980;2022-07-29T06:44:18;3.55;;;1.30;;
5987;SDS011;3021;51.000;6.980;2022-07-29T06:46:44;2.80;;;1.45;;
5987;SDS011;3021;51.000;6.980;2022-07-29T06:49:09;4.63;;;1.30;;
5987;SDS011;3021;51.000;6.980;2022-07-29T06:51:35;3.97;;;1.40;;
5987;SDS011;3021;51.000;6.980;2022-07-29T06:54:01;5.28;;;1.40;;
5987;SDS011;3021;51.000;6.980;2022-07-29T06:56:26;4.80;;;1.63;;
5987;SDS011;3021;51.000;6.980;2022-07-29T06:58:52;6.68;;;1.75;;
5987;SDS011;3021;51.000;6.980;2022-07-29T07:01:17;3.38;;;1.48;;
5987;SDS011;3021;51.000;6.980;2022-07-29T07:03:43;3.47;;;1.40;;
5987;SDS011;3021;51.000;6.980;2022-07-29T07:06:08;3.63;;;1.15;;
5987;SDS011;3021;51.000;6.980;2022-07-29T07:08:34;4.78;;;1.55;;
5987;SDS011;3021;51.000;6.980;2022-07-29T07:10:59;2.55;;;1.52;;
5987;SDS011;3021;51.000;6.980;2022-07-29T07:13:25;5.95;;;1.40;;
5987;SDS011;3021;51.000;6.980;2022-07-29T07:15:50;5.75;;;1.50;;
5987;SDS011;3021;51.000;6.980;2022-07-29T07:18:17;2.67;;;1.60;;
5987;SDS011;3021;51.000;6.980;2022-07-29T07:20:43;4.10;;;1.17;;
5987;SDS011;3021;51.000;6.980;2022-07-29T07:23:08;3.00;;;1.10;;
5987;SDS011;3021;51.000;6.980;2022-07-29T07:25:34;2.65;;;1.05;;
5987;SDS011;3021;51.000;6.980;2022-07-29T07:27:59;4.22;;;1.23;;
5987;SDS011;3021;51.000;6.980;2022-07-29T07:30:25;3.40;;;1.30;;
5987;SDS011;3021;51.000;6.980;2022-07-29T07:32:50;6.00;;;1.30;;
5987;SDS011;3021;51.000;6.980;2022-07-29T07:35:16;1.80;;;1.20;;
5987;SDS011;3021;51.000;6.980;2022-07-29T07:37:41;2.80;;;1.35;;
5987;SDS011;3021;51.000;6.980;2022-07-29T07:40:08;5.05;;;1.35;;
5987;SDS011;3021;51.000;6.980;2022-07-29T07:42:34;6.55;;;1.63;;
5987;SDS011;3021;51.000;6.980;2022-07-29T07:45:00;6.85;;;1.52;;
5987;SDS011;3021;51.000;6.980;2022-07-29T07:47:25;4.93;;;1.30;;
5987;SDS011;3021;51.000;6.980;2022-07-29T07:49:51;4.00;;;1.40;;
5987;SDS011;3021;51.000;6.980;2022-07-29T07:52:19;3.10;;;1.10;;
5987;SDS011;3021;51.000;6.980;2022-07-29T07:54:46;2.95;;;1.40;;
5987;SDS011;3021;51.000;6.980;2022-07-29T07:57:12;2.33;;;0.95;;
5987;SDS011;3021;51.000;6.980;2022-07-29T07:59:37;5.10;;;1.40;;
5987;SDS011;3021;51.000;6.980;2022-07-29T08:02:03;3.47;;;1.27;;
5987;SDS011;3021;51.000;6.980;2022-07-29T08:04:29;1.95;;;1.20;;
5987;SDS011;3021;51.000;6.980;2022-07-29T08:06:54;3.53;;;1.10;;
5987;SDS011;3021;51.000;6.980;2022-07-29T08:09:20;4.72;;;1.40;;
5987;SDS011;3021;51.000;6.980;2022-07-29T08:11:46;4.50;;;1.33;;
5987;SDS011;3021;51.000;6.980;2022-07-29T08:14:12;1.52;;;1.30;;
5987;SDS011;3021;51.000;6.980;2022-07-29T08:16:38;2.42;;;1.10;;
5987;SDS011;3021;51.000;6.980;2022-07-29T08:19:05;2.67;;;1.23;;
5987;SDS011;3021;51.000;6.980;2022-07-29T08:21:30;5.20;;;1.20;;
5987;SDS011;3021;51.000;6.980;2022-07-29T08:23:55;2.20;;;1.23;;
5987;SDS011;3021;51.000;6.980;2022-07-29T08:26:41;3.45;;;1.38;;
5987;SDS011;3021;51.000;6.980;2022-07-29T08:29:07;3.45;;;1.20;;
5987;SDS011;3021;51.000;6.980;2022-07-29T08:31:33;2.28;;;1.10;;
5987;SDS011;3021;51.000;6.980;2022-07-29T08:33:58;1.80;;;1.23;;
5987;SDS011;3021;51.000;6.980;2022-07-29T08:36:25;3.10;;;1.05;;
5987;SDS011;3021;51.000;6.980;2022-07-29T08:38:51;2.63;;;1.27;;
5987;SDS011;3021;51.000;6.980;2022-07-29T08:41:17;3.90;;;1.58;;
5987;SDS011;3021;51.000;6.980;2022-07-29T08:43:46;2.33;;;1.20;;
5987;SDS011;3021;51.000;6.980;2022-07-29T08:46:12;2.67;;;1.33;;
5987;SDS011;3021;51.000;6.980;2022-07-29T08:48:39;2.05;;;1.20;;
5987;SDS011;3021;51.000;6.980;2022-07-29T08:51:05;4.20;;;1.48;;
5987;SDS011;3021;51.000;6.980;2022-07-29T08:53:32;2.60;;;1.40;;
5987;SDS011;3021;51.000;6.980;2022-07-29T08:55:58;4.15;;;1.42;;
5987;SDS011;3021;51.000;6.980;2022-07-29T08:58:24;1.42;;;1.20;;
5987;SDS011;3021;51.000;6.980;2022-07-29T09:00:52;3.33;;;1.02;;
5987;SDS011;3021;51.000;6.980;2022-07-29T09:03:20;4.85;;;1.20;;
5987;SDS011;3021;51.000;6.980;2022-07-29T09:05:48;3.38;;;1.40;;
5987;SDS011;3021;51.000;6.980;2022-07-29T09:08:14;3.22;;;1.42;;
5987;SDS011;3021;51.000;6.980;2022-07-29T09:10:40;6.63;;;1.67;;
5987;SDS011;3021;51.000;6.980;2022-07-29T09:13:06;4.35;;;1.20;;
5987;SDS011;3021;51.000;6.980;2022-07-29T09:15:31;2.10;;;1.30;;
5987;SDS011;3021;51.000;6.980;2022-07-29T09:17:57;2.55;;;1.50;;
5987;SDS011;3021;51.000;6.980;2022-07-29T09:20:24;3.97;;;1.65;;
5987;SDS011;3021;51.000;6.980;2022-07-29T09:22:50;4.80;;;1.60;;
5987;SDS011;3021;51.000;6.980;2022-07-29T09:25:37;2.30;;;1.40;;
5987;SDS011;3021;51.000;6.980;2022-07-29T09:28:07;4.22;;;1.30;;
5987;SDS011;3021;51.000;6.980;2022-07-29T09:30:34;3.65;;;1.40;;
5987;SDS011;3021;51.000;6.980;2022-07-29T09:33:01;5.30;;;1.77;;
5987;SDS011;3021;51.000;6.980;2022-07-29T09:35:28;3.97;;;1.63;;
5987;SDS011;3021;51.000;6.980;2022-07-29T09:37:55;4.82;;;1.98;;
5987;SDS011;3021;51.000;6.980;2022-07-29T09:40:23;4.13;;;1.27;;
5987;SDS011;3021;51.000;6.980;2022-07-29T09:42:52;4.38;;;1.50;;
5987;SDS011;3021;51.000;6.980;2022-07-29T09:45:31;2.30;;;1.40;;
5987;SDS011;3021;51.000;6.980;2022-07-29T09:47:58;2.83;;;1.65;;
5987;SDS011;3021;51.000;6.980;2022-07-29T09:51:01;3.28;;;1.58;;
5987;SDS011;3021;51.000;6.980;2022-07-29T09:53:30;4.82;;;2.00;;
5987;SDS011;3021;51.000;6.980;2022-07-29T09:55:59;3.83;;;1.50;;
5987;SDS011;3021;51.000;6.980;2022-07-29T09:58:25;4.88;;;1.50;;
5987;SDS011;3021;51.000;6.980;2022-07-29T10:00:52;7.45;;;1.55;;
5987;SDS011;3021;51.000;6.980;2022-07-29T10:03:19;2.35;;;1.55;;
5987;SDS011;3021;51.000;6.980;2022-07-29T10:05:45;3.95;;;1.40;;
5987;SDS011;3021;51.000;6.980;2022-07-29T10:08:11;5.38;;;2.00;;
5987;SDS011;3021;51.000;6.980;2022-07-29T10:10:41;4.30;;;1.85;;
5987;SDS011;3021;51.000;6.980;2022-07-29T10:15:38;2.35;;;1.50;;
5987;SDS011;3021;51.000;6.980;2022-07-29T10:18:13;3.92;;;1.90;;
5987;SDS011;3021;51.000;6.980;2022-07-29T10:20:39;2.40;;;1.55;;
5987;SDS011;3021;51.000;6.980;2022-07-29T10:23:08;2.15;;;1.30;;
5987;SDS011;3021;51.000;6.980;2022-07-29T10:25:33;3.38;;;1.52;;
5987;SDS011;3021;51.000;6.980;2022-07-29T10:27:59;4.50;;;1.60;;
5987;SDS011;3021;51.000;6.980;2022-07-29T10:30:25;4.43;;;2.10;;
5987;SDS011;3021;51.000;6.980;2022-07-29T10:35:56;3.80;;;1.60;;
5987;SDS011;3021;51.000;6.980;2022-07-29T10:41:33;3.47;;;1.65;;
5987;SDS011;3021;51.000;6.980;2022-07-29T10:44:23;2.10;;;1.50;;
5987;SDS011;3021;51.000;6.980;2022-07-29T10:46:50;3.95;;;1.60;;
5987;SDS011;3021;51.000;6.980;2022-07-29T10:49:17;6.80;;;1.60;;
5987;SDS011;3021;51.000;6.980;2022-07-29T10:54:15;3.45;;;1.50;;
5987;SDS011;3021;51.000;6.980;2022-07-29T10:56:42;2.58;;;1.40;;
5987;SDS011;3021;51.000;6.980;2022-07-29T11:01:45;2.22;;;1.45;;
5987;SDS011;3021;51.000;6.980;2022-07-29T11:04:11;4.50;;;1.48;;
5987;SDS011;3021;51.000;6.980;2022-07-29T11:09:30;2.00;;;1.40;;
5987;SDS011;3021;51.000;6.980;2022-07-29T11:11:56;2.22;;;1.30;;
5987;SDS011;3021;51.000;6.980;2022-07-29T11:15:08;3.03;;;1.52;;
5987;SDS011;3021;51.000;6.980;2022-07-29T11:17:16;2.15;;;1.30;;
5987;SDS011;3021;51.000;6.980;2022-07-29T11:19:41;2.05;;;1.35;;
5987;SDS011;3021;51.000;6.980;2022-07-29T11:22:07;2.85;;;1.73;;
5987;SDS011;3021;51.000;6.980;2022-07-29T11:24:34;4.70;;;1.27;;
5987;SDS011;3021;51.000;6.980;2022-07-29T11:27:10;2.63;;;1.42;;
5987;SDS011;3021;51.000;6.980;2022-07-29T11:29:54;2.72;;;1.40;;
5987;SDS011;3021;51.000;6.980;2022-07-29T11:32:22;3.63;;;1.60;;
5987;SDS011;3021;51.000;6.980;2022-07-29T11:34:49;2.72;;;1.40;;
5987;SDS011;3021;51.000;6.980;2022-07-29T11:37:40;2.85;;;1.35;;
5987;SDS011;3021;51.000;6.980;2022-07-29T11:44:58;3.47;;;1.17;;
5987;SDS011;3021;51.000;6.980;2022-07-29T11:47:24;5.30;;;1.70;;
5987;SDS011;3021;51.000;6.980;2022-07-29T11:49:52;4.50;;;1.50;;
5987;SDS011;3021;51.000;6.980;2022-07-29T11:52:19;2.95;;;1.20;;
5987;SDS011;3021;51.000;6.980;2022-07-29T11:54:49;3.95;;;1.38;;
5987;SDS011;3021;51.000;6.980;2022-07-29T11:57:15;4.85;;;1.63;;
5987;SDS011;3021;51.000;6.980;2022-07-29T11:59:43;1.65;;;1.00;;
5987;SDS011;3021;51.000;6.980;2022-07-29T12:02:10;5.80;;;1.30;;
5987;SDS011;3021;51.000;6.980;2022-07-29T12:04:51;1.83;;;1.00;;
5987;SDS011;3021;51.000;6.980;2022-07-29T12:07:18;1.60;;;1.15;;
5987;SDS011;3021;51.000;6.980;2022-07-29T12:09:52;1.95;;;0.90;;
5987;SDS011;3021;51.000;6.980;2022-07-29T12:12:18;3.90;;;1.55;;
5987;SDS011;3021;51.000;6.980;2022-07-29T12:14:44;5.97;;;2.03;;
5987;SDS011;3021;51.000;6.980;2022-07-29T12:17:28;3.35;;;1.50;;
5987;SDS011;3021;51.000;6.980;2022-07-29T12:19:56;2.90;;;1.20;;
5987;SDS011;3021;51.000;6.980;2022-07-29T12:22:34;4.13;;;1.70;;
5987;SDS011;3021;51.000;6.980;2022-07-29T12:27:39;2.92;;;1.30;;
5987;SDS011;3021;51.000;6.980;2022-07-29T12:30:05;2.70;;;1.30;;
5987;SDS011;3021;51.000;6.980;2022-07-29T12:32:34;1.98;;;1.42;;
5987;SDS011;3021;51.000;6.980;2022-07-29T12:35:11;3.15;;;1.25;;
5987;SDS011;3021;51.000;6.980;2022-07-29T12:37:42;2.03;;;1.35;;
5987;SDS011;3021;51.000;6.980;2022-07-29T12:40:13;1.90;;;1.20;;
5987;SDS011;3021;51.000;6.980;2022-07-29T12:42:41;1.67;;;1.10;;
5987;SDS011;3021;51.000;6.980;2022-07-29T12:45:08;4.65;;;1.50;;
5987;SDS011;3021;51.000;6.980;2022-07-29T12:47:33;1.80;;;1.10;;
5987;SDS011;3021;51.000;6.980;2022-07-29T12:50:16;2.25;;;1.00;;
5987;SDS011;3021;51.000;6.980;2022-07-29T12:52:43;2.22;;;1.30;;
5987;SDS011;3021;51.000;6.980;2022-07-29T12:55:09;2.05;;;1.00;;
5987;SDS011;3021;51.000;6.980;2022-07-29T12:57:47;1.52;;;1.00;;
5987;SDS011;3021;51.000;6.980;2022-07-29T13:00:15;4.78;;;1.30;;
5987;SDS011;3021;51.000;6.980;2022-07-29T13:02:41;3.85;;;1.13;;
5987;SDS011;3021;51.000;6.980;2022-07-29T13:05:09;2.40;;;1.30;;
5987;SDS011;3021;51.000;6.980;2022-07-29T13:07:36;4.00;;;0.90;;
5987;SDS011;3021;51.000;6.980;2022-07-29T13:10:12;3.13;;;1.23;;
5987;SDS011;3021;51.000;6.980;2022-07-29T13:12:39;4.13;;;1.20;;
5987;SDS011;3021;51.000;6.980;2022-07-29T13:15:24;2.92;;;1.13;;
5987;SDS011;3021;51.000;6.980;2022-07-29T13:17:50;3.13;;;1.20;;
5987;SDS011;3021;51.000;6.980;2022-07-29T13:20:15;2.20;;;1.33;;
5987;SDS011;3021;51.000;6.980;2022-07-29T13:22:41;2.65;;;1.08;;
5987;SDS011;3021;51.000;6.980;2022-07-29T13:25:07;3.33;;;1.10;;
5987;SDS011;3021;51.000;6.980;2022-07-29T13:27:34;1.67;;;1.13;;
5987;SDS011;3021;51.000;6.980;2022-07-29T13:30:02;2.50;;;1.17;;
5987;SDS011;3021;51.000;6.980;2022-07-29T13:32:30;4.90;;;1.40;;
5987;SDS011;3021;51.000;6.980;2022-07-29T13:34:57;5.38;;;1.58;;
5987;SDS011;3021;51.000;6.980;2022-07-29T13:37:23;4.75;;;2.22;;
5987;SDS011;3021;51.000;6.980;2022-07-29T13:39:50;2.65;;;1.75;;
5987;SDS011;3021;51.000;6.980;2022-07-29T13:42:17;2.15;;;1.42;;
5987;SDS011;3021;51.000;6.980;2022-07-29T13:44:42;3.17;;;1.90;;
5987;SDS011;3021;51.000;6.980;2022-07-29T13:47:08;3.33;;;1.92;;
5987;SDS011;3021;51.000;6.980;2022-07-29T13:49:34;4.68;;;1.90;;
5987;SDS011;3021;51.000;6.980;2022-07-29T13:52:00;4.88;;;1.83;;
5987;SDS011;3021;51.000;6.980;2022-07-29T13:54:25;3.45;;;2.00;;
5987;SDS011;3021;51.000;6.980;2022-07-29T13:56:51;5.00;;;1.80;;
5987;SDS011;3021;51.000;6.980;2022-07-29T13:59:16;4.63;;;1.90;;
5987;SDS011;3021;51.000;6.980;2022-07-29T14:01:42;3.35;;;1.80;;
5987;SDS011;3021;51.000;6.980;2022-07-29T14:04:08;4.22;;;1.65;;
5987;SDS011;3021;51.000;6.980;2022-07-29T14:06:34;5.03;;;2.03;;
5987;SDS011;3021;51.000;6.980;2022-07-29T14:09:00;4.90;;;1.90;;
5987;SDS011;3021;51.000;6.980;2022-07-29T14:11:25;6.95;;;1.90;;
5987;SDS011;3021;51.000;6.980;2022-07-29T14:13:50;3.35;;;1.98;;
5987;SDS011;3021;51.000;6.980;2022-07-29T14:16:16;2.25;;;1.60;;
5987;SDS011;3021;51.000;6.980;2022-07-29T14:18:41;3.90;;;2.00;;
5987;SDS011;3021;51.000;6.980;2022-07-29T14:21:07;3.80;;;1.70;;
5987;SDS011;3021;51.000;6.980;2022-07-29T14:23:33;4.35;;;1.90;;
5987;SDS011;3021;51.000;6.980;2022-07-29T14:25:58;3.38;;;1.70;;
5987;SDS011;3021;51.000;6.980;2022-07-29T14:28:23;4.22;;;1.73;;
5987;SDS011;3021;51.000;6.980;2022-07-29T14:30:49;4.53;;;1.67;;
5987;SDS011;3021;51.000;6.980;2022-07-29T14:33:14;3.47;;;1.40;;
5987;SDS011;3021;51.000;6.980;2022-07-29T14:35:39;4.50;;;2.28;;
5987;SDS011;3021;51.000;6.980;2022-07-29T14:38:05;2.60;;;1.40;;
5987;SDS011;3021;51.000;6.980;2022-07-29T14:40:30;3.70;;;1.40;;
5987;SDS011;3021;51.000;6.980;2022-07-29T14:42:56;3.20;;;1.55;;
5987;SDS011;3021;51.000;6.980;2022-07-29T14:45:21;3.15;;;1.60;;
5987;SDS011;3021;51.000;6.980;2022-07-29T14:47:47;4.35;;;1.77;;
5987;SDS011;3021;51.000;6.980;2022-07-29T14:50:14;2.95;;;1.50;;
5987;SDS011;3021;51.000;6.980;2022-07-29T14:52:40;3.95;;;1.45;;
5987;SDS011;3021;51.000;6.980;2022-07-29T14:55:05;2.83;;;1.60;;
5987;SDS011;3021;51.000;6.980;2022-07-29T14:57:31;2.95;;;1.48;;
5987;SDS011;3021;51.000;6.980;2022-07-29T14:59:56;3.40;;;1.98;;
5987;SDS011;3021;51.000;6.980;2022-07-29T15:02:22;3.28;;;1.60;;
5987;SDS011;3021;51.000;6.980;2022-07-29T15:04:47;2.03;;;1.20;;
5987;SDS011;3021;51.000;6.980;2022-07-29T15:07:13;2.75;;;1.52;;
5987;SDS011;3021;51.000;6.980;2022-07-29T15:09:39;1.95;;;1.20;;
5987;SDS011;3021;51.000;6.980;2022-07-29T15:12:05;2.88;;;1.50;;
5987;SDS011;3021;51.000;6.980;2022-07-29T15:14:31;3.63;;;1.38;;
5987;SDS011;3021;51.000;6.980;2022-07-29T15:16:57;4.80;;;1.25;;
5987;SDS011;3021;51.000;6.980;2022-07-29T15:19:22;3.78;;;1.63;;
5987;SDS011;3021;51.000;6.980;2022-07-29T15:21:48;1.92;;;1.20;;
5987;SDS011;3021;51.000;6.980;2022-07-29T15:24:13;2.78;;;1.25;;
5987;SDS011;3021;51.000;6.980;2022-07-29T15:26:39;4.20;;;1.40;;
5987;SDS011;3021;51.000;6.980;2022-07-29T15:29:04;5.95;;;1.27;;
5987;SDS011;3021;51.000;6.980;2022-07-29T15:31:30;2.83;;;1.15;;
5987;SDS011;3021;51.000;6.980;2022-07-29T15:33:55;2.97;;;1.23;;
5987;SDS011;3021;51.000;6.980;2022-07-29T15:36:20;2.25;;;1.20;;
5987;SDS011;3021;51.000;6.980;2022-07-29T15:38:46;4.32;;;1.35;;
5987;SDS011;3021;51.000;6.980;2022-07-29T15:41:14;3.95;;;1.30;;
5987;SDS011;3021;51.000;6.980;2022-07-29T15:43:43;4.55;;;1.33;;
5987;SDS011;3021;51.000;6.980;2022-07-29T15:46:12;3.35;;;1.25;;
5987;SDS011;3021;51.000;6.980;2022-07-29T15:48:57;2.15;;;1.40;;
5987;SDS011;3021;51.000;6.980;2022-07-29T15:51:22;1.90;;;1.05;;
5987;SDS011;3021;51.000;6.980;2022-07-29T15:53:48;2.40;;;1.30;;
5987;SDS011;3021;51.000;6.980;2022-07-29T15:56:14;2.38;;;1.25;;
5987;SDS011;3021;51.000;6.980;2022-07-29T15:58:39;3.97;;;1.40;;